createdAt,value
2022-11-30T00:00:45.652Z,5.30
2022-11-30T00:01:45.641Z,5.36
2022-11-30T00:02:45.749Z,5.39
2022-11-30T00:03:45.633Z,5.32
2022-11-30T00:04:45.873Z,5.40
2022-11-30T00:05:45.610Z,5.36
2022-11-30T00:06:45.588Z,5.39
2022-11-30T00:07:45.638Z,5.32
2022-11-30T00:08:45.562Z,5.39
2022-11-30T00:09:45.569Z,5.29
2022-11-30T00:10:45.541Z,5.32
2022-11-30T00:11:45.540Z,5.30
2022-11-30T00:12:45.546Z,5.24
2022-11-30T00:13:45.577Z,5.32
2022-11-30T00:14:45.838Z,5.29
2022-11-30T00:15:45.494Z,5.39
2022-11-30T00:16:45.545Z,5.30
2022-11-30T00:17:45.468Z,5.33
2022-11-30T00:18:45.470Z,5.40
2022-11-30T00:19:45.465Z,5.36
2022-11-30T00:20:45.441Z,5.32
2022-11-30T00:21:45.425Z,5.30
2022-11-30T00:22:45.411Z,5.33
2022-11-30T00:23:45.414Z,5.36
2022-11-30T00:24:45.745Z,5.39
2022-11-30T00:25:45.409Z,5.39
2022-11-30T00:26:45.371Z,5.39
2022-11-30T00:27:45.362Z,5.44
2022-11-30T00:28:45.354Z,5.33
2022-11-30T00:29:45.374Z,5.29
2022-11-30T00:30:45.409Z,5.37
2022-11-30T00:31:45.346Z,5.33
2022-11-30T00:32:45.328Z,5.37
2022-11-30T00:33:45.296Z,5.41
2022-11-30T00:34:45.750Z,5.37
2022-11-30T00:35:45.291Z,5.36
2022-11-30T00:36:45.264Z,5.32
2022-11-30T00:37:45.261Z,5.34
2022-11-30T00:38:45.259Z,5.33
2022-11-30T00:39:45.233Z,5.29
2022-11-30T00:40:45.248Z,5.40
2022-11-30T00:41:45.211Z,5.29
2022-11-30T00:42:45.200Z,5.33
2022-11-30T00:43:45.197Z,5.32
2022-11-30T00:44:45.636Z,5.30
2022-11-30T00:45:45.242Z,5.36
2022-11-30T00:46:45.174Z,5.30
2022-11-30T00:47:45.151Z,5.32
2022-11-30T00:48:45.154Z,5.37
2022-11-30T00:49:45.133Z,5.40
2022-11-30T00:50:45.130Z,5.30
2022-11-30T00:51:45.128Z,5.30
2022-11-30T00:52:45.098Z,5.30
2022-11-30T00:53:45.084Z,5.33
2022-11-30T00:54:45.435Z,5.33
2022-11-30T00:55:45.073Z,5.32
2022-11-30T00:56:45.066Z,5.40
2022-11-30T00:57:45.053Z,5.39
2022-11-30T00:58:45.046Z,5.39
2022-11-30T00:59:45.022Z,5.30
2022-11-30T01:00:45.015Z,5.30
2022-11-30T01:01:45.070Z,5.32
2022-11-30T01:02:45.043Z,5.33
2022-11-30T01:03:44.984Z,5.25
2022-11-30T01:04:45.323Z,5.33
2022-11-30T01:05:44.956Z,5.36
2022-11-30T01:06:44.953Z,5.32
2022-11-30T01:07:45.020Z,5.30
2022-11-30T01:08:44.940Z,5.36
2022-11-30T01:09:44.915Z,5.36
2022-11-30T01:10:44.910Z,5.36
2022-11-30T01:11:44.892Z,5.33
2022-11-30T01:12:44.892Z,5.34
2022-11-30T01:13:44.902Z,5.37
2022-11-30T01:14:45.234Z,5.36
2022-11-30T01:15:44.914Z,5.41
2022-11-30T01:16:44.851Z,5.40
2022-11-30T01:17:44.846Z,5.43
2022-11-30T01:18:44.821Z,5.34
2022-11-30T01:19:44.836Z,5.34
2022-11-30T01:20:44.817Z,5.36
2022-11-30T01:21:44.789Z,5.41
2022-11-30T01:22:44.788Z,5.33
2022-11-30T01:23:44.772Z,5.43
2022-11-30T01:24:45.080Z,5.34
2022-11-30T01:25:44.762Z,5.39
2022-11-30T01:26:44.740Z,5.37
2022-11-30T01:27:44.728Z,5.39
2022-11-30T01:28:44.716Z,5.41
2022-11-30T01:29:44.705Z,5.41
2022-11-30T01:30:44.758Z,5.39
2022-11-30T01:31:44.694Z,5.36
2022-11-30T01:32:44.693Z,5.36
2022-11-30T01:33:44.673Z,5.37
2022-11-30T01:34:44.930Z,5.36
2022-11-30T01:35:44.642Z,5.40
2022-11-30T01:36:44.650Z,5.37
2022-11-30T01:37:44.620Z,5.33
2022-11-30T01:38:44.616Z,5.27
2022-11-30T01:39:44.604Z,5.36
2022-11-30T01:40:44.580Z,5.33
2022-11-30T01:41:44.577Z,5.24
2022-11-30T01:42:44.572Z,5.27
2022-11-30T01:43:44.565Z,5.36
2022-11-30T01:44:44.786Z,5.27
2022-11-30T01:45:44.716Z,5.39
2022-11-30T01:46:44.528Z,5.32
2022-11-30T01:47:44.512Z,5.33
2022-11-30T01:48:44.501Z,5.32
2022-11-30T01:49:44.504Z,5.30
2022-11-30T01:50:44.472Z,5.32
2022-11-30T01:51:44.481Z,5.27
2022-11-30T01:52:44.456Z,5.27
2022-11-30T01:53:44.446Z,5.27
2022-11-30T01:54:44.731Z,5.30
2022-11-30T01:55:44.441Z,5.36
2022-11-30T01:56:44.404Z,5.29
2022-11-30T01:57:44.407Z,5.34
2022-11-30T01:58:44.389Z,5.33
2022-11-30T01:59:44.382Z,5.32
2022-11-30T02:00:44.369Z,5.33
2022-11-30T02:01:44.446Z,5.24
2022-11-30T02:02:44.419Z,5.24
2022-11-30T02:03:44.347Z,5.29
2022-11-30T02:04:44.652Z,5.29
2022-11-30T02:05:44.335Z,5.30
2022-11-30T02:06:44.301Z,5.21
2022-11-30T02:07:44.510Z,5.27
2022-11-30T02:08:44.343Z,5.24
2022-11-30T02:09:44.342Z,5.30
2022-11-30T02:10:44.279Z,5.27
2022-11-30T02:11:44.273Z,5.21
2022-11-30T02:12:44.241Z,5.32
2022-11-30T02:13:44.241Z,5.30
2022-11-30T02:14:44.459Z,5.32
2022-11-30T02:15:44.232Z,5.27
2022-11-30T02:16:44.202Z,5.21
2022-11-30T02:17:44.191Z,5.29
2022-11-30T02:18:44.177Z,5.30
2022-11-30T02:19:44.158Z,5.30
2022-11-30T02:20:44.165Z,5.32
2022-11-30T02:21:44.166Z,5.22
2022-11-30T02:22:44.143Z,5.27
2022-11-30T02:23:44.121Z,5.25
2022-11-30T02:24:44.495Z,5.24
2022-11-30T02:25:44.105Z,5.25
2022-11-30T02:26:44.101Z,5.29
2022-11-30T02:27:44.106Z,5.27
2022-11-30T02:28:44.068Z,5.24
2022-11-30T02:29:44.057Z,5.27
2022-11-30T02:30:44.159Z,5.22
2022-11-30T02:31:44.027Z,5.27
2022-11-30T02:32:44.034Z,5.25
2022-11-30T02:33:44.025Z,5.25
2022-11-30T02:34:44.137Z,5.30
2022-11-30T02:35:43.985Z,5.24
2022-11-30T02:36:43.976Z,5.25
2022-11-30T02:37:44.001Z,5.21
2022-11-30T02:38:43.963Z,5.22
2022-11-30T02:39:43.969Z,5.19
2022-11-30T02:40:43.937Z,5.14
2022-11-30T02:41:43.929Z,5.21
2022-11-30T02:42:43.918Z,5.19
2022-11-30T02:43:43.906Z,5.16
2022-11-30T02:44:43.967Z,5.19
2022-11-30T02:45:43.896Z,5.19
2022-11-30T02:46:43.998Z,5.24
2022-11-30T02:47:43.863Z,5.24
2022-11-30T02:48:43.851Z,5.22
2022-11-30T02:49:43.832Z,5.21
2022-11-30T02:50:43.864Z,5.16
2022-11-30T02:51:43.833Z,5.07
2022-11-30T02:52:43.799Z,5.18
2022-11-30T02:53:43.818Z,5.15
2022-11-30T02:54:43.805Z,5.27
2022-11-30T02:55:43.787Z,5.18
2022-11-30T02:56:43.765Z,5.12
2022-11-30T02:57:43.748Z,5.15
2022-11-30T02:58:43.744Z,5.16
2022-11-30T02:59:43.734Z,5.15
2022-11-30T03:00:43.729Z,5.19
2022-11-30T03:01:43.785Z,5.29
2022-11-30T03:02:43.746Z,5.29
2022-11-30T03:03:43.711Z,5.22
2022-11-30T03:04:43.761Z,5.14
2022-11-30T03:05:43.660Z,5.18
2022-11-30T03:06:43.668Z,5.24
2022-11-30T03:07:43.696Z,5.14
2022-11-30T03:08:43.636Z,5.18
2022-11-30T03:09:43.641Z,5.19
2022-11-30T03:10:43.606Z,5.18
2022-11-30T03:11:43.622Z,5.14
2022-11-30T03:12:43.588Z,5.18
2022-11-30T03:13:43.569Z,5.12
2022-11-30T03:14:43.744Z,5.19
2022-11-30T03:15:43.618Z,5.16
2022-11-30T03:16:43.542Z,5.14
2022-11-30T03:17:43.548Z,5.21
2022-11-30T03:18:43.533Z,5.16
2022-11-30T03:19:43.513Z,5.15
2022-11-30T03:20:43.504Z,5.14
2022-11-30T03:21:43.512Z,5.24
2022-11-30T03:22:43.477Z,5.16
2022-11-30T03:23:43.475Z,5.15
2022-11-30T03:24:43.464Z,5.19
2022-11-30T03:25:43.462Z,5.11
2022-11-30T03:26:43.430Z,5.16
2022-11-30T03:27:43.446Z,5.11
2022-11-30T03:28:43.428Z,5.19
2022-11-30T03:29:43.406Z,5.16
2022-11-30T03:30:43.489Z,5.09
2022-11-30T03:31:43.378Z,5.21
2022-11-30T03:32:43.388Z,5.14
2022-11-30T03:33:43.369Z,5.09
2022-11-30T03:34:43.347Z,5.12
2022-11-30T03:35:43.334Z,5.04
2022-11-30T03:36:43.325Z,5.12
2022-11-30T03:37:43.321Z,5.06
2022-11-30T03:38:43.329Z,5.07
2022-11-30T03:39:43.294Z,5.14
2022-11-30T03:40:43.292Z,5.11
2022-11-30T03:41:43.294Z,5.12
2022-11-30T03:42:43.260Z,5.09
2022-11-30T03:43:43.262Z,5.06
2022-11-30T03:44:43.256Z,5.09
2022-11-30T03:45:43.249Z,5.09
2022-11-30T03:46:43.252Z,5.18
2022-11-30T03:47:43.210Z,5.11
2022-11-30T03:48:43.194Z,5.12
2022-11-30T03:49:43.185Z,5.12
2022-11-30T03:50:43.170Z,5.07
2022-11-30T03:51:43.178Z,5.09
2022-11-30T03:52:43.165Z,5.09
2022-11-30T03:53:43.143Z,5.00
2022-11-30T03:54:43.126Z,5.12
2022-11-30T03:55:43.122Z,5.00
2022-11-30T03:56:43.121Z,5.04
2022-11-30T03:57:43.135Z,5.04
2022-11-30T03:58:43.094Z,5.07
2022-11-30T03:59:43.074Z,4.98
2022-11-30T04:00:43.069Z,5.00
2022-11-30T04:01:43.113Z,5.04
2022-11-30T04:02:44.939Z,5.00
2022-11-30T04:03:43.042Z,5.00
2022-11-30T04:04:43.029Z,5.07
2022-11-30T04:05:43.014Z,4.98
2022-11-30T04:06:43.000Z,5.01
2022-11-30T04:07:43.064Z,5.03
2022-11-30T04:08:42.985Z,5.04
2022-11-30T04:09:42.965Z,5.06
2022-11-30T04:10:42.974Z,5.00
2022-11-30T04:11:42.953Z,4.97
2022-11-30T04:12:42.942Z,5.03
2022-11-30T04:13:42.968Z,5.01
2022-11-30T04:14:42.910Z,5.00
2022-11-30T04:15:42.940Z,5.06
2022-11-30T04:16:42.901Z,5.06
2022-11-30T04:17:42.876Z,5.03
2022-11-30T04:18:42.888Z,5.03
2022-11-30T04:19:42.869Z,5.07
2022-11-30T04:20:42.850Z,5.11
2022-11-30T04:21:42.836Z,5.06
2022-11-30T04:22:42.840Z,5.14
2022-11-30T04:23:42.817Z,5.07
2022-11-30T04:24:42.829Z,5.01
2022-11-30T04:25:42.795Z,5.04
2022-11-30T04:26:42.789Z,5.01
2022-11-30T04:27:42.772Z,4.96
2022-11-30T04:28:42.781Z,4.98
2022-11-30T04:29:42.777Z,4.96
2022-11-30T04:30:42.755Z,5.01
2022-11-30T04:31:42.771Z,4.98
2022-11-30T04:32:42.722Z,5.03
2022-11-30T04:33:42.708Z,5.00
2022-11-30T04:34:42.716Z,5.00
2022-11-30T04:35:42.709Z,4.98
2022-11-30T04:36:42.680Z,5.00
2022-11-30T04:37:42.663Z,4.93
2022-11-30T04:38:42.653Z,5.00
2022-11-30T04:39:42.649Z,5.00
2022-11-30T04:40:42.649Z,4.96
2022-11-30T04:41:42.634Z,4.98
2022-11-30T04:42:42.612Z,4.91
2022-11-30T04:43:42.606Z,4.96
2022-11-30T04:44:42.601Z,4.91
2022-11-30T04:45:42.613Z,4.93
2022-11-30T04:46:42.657Z,4.93
2022-11-30T04:47:42.558Z,4.88
2022-11-30T04:48:42.552Z,4.93
2022-11-30T04:49:42.547Z,4.98
2022-11-30T04:50:42.533Z,4.93
2022-11-30T04:51:42.517Z,4.93
2022-11-30T04:52:42.537Z,4.88
2022-11-30T04:53:42.510Z,4.91
2022-11-30T04:54:42.497Z,4.88
2022-11-30T04:55:42.477Z,4.88
2022-11-30T04:56:42.462Z,4.89
2022-11-30T04:57:42.472Z,4.89
2022-11-30T04:58:42.470Z,4.89
2022-11-30T04:59:42.438Z,4.88
2022-11-30T05:00:42.418Z,4.85
2022-11-30T05:01:42.507Z,4.83
2022-11-30T05:02:44.461Z,4.88
2022-11-30T05:03:42.391Z,4.89
2022-11-30T05:04:42.448Z,4.94
2022-11-30T05:05:42.374Z,4.85
2022-11-30T05:06:42.366Z,4.86
2022-11-30T05:07:42.414Z,4.88
2022-11-30T05:08:42.335Z,4.94
2022-11-30T05:09:42.321Z,4.89
2022-11-30T05:10:42.324Z,4.94
2022-11-30T05:11:42.315Z,4.91
2022-11-30T05:12:42.297Z,4.86
2022-11-30T05:13:42.281Z,4.82
2022-11-30T05:14:42.277Z,4.86
2022-11-30T05:15:42.263Z,4.83
2022-11-30T05:16:42.252Z,4.83
2022-11-30T05:17:42.263Z,4.93
2022-11-30T05:18:42.242Z,4.91
2022-11-30T05:19:42.214Z,4.91
2022-11-30T05:20:42.212Z,4.88
2022-11-30T05:21:45.635Z,4.85
2022-11-30T05:22:42.198Z,4.85
2022-11-30T05:23:42.179Z,4.83
2022-11-30T05:24:42.181Z,4.83
2022-11-30T05:25:42.150Z,4.91
2022-11-30T05:26:42.143Z,4.91
2022-11-30T05:27:42.138Z,4.86
2022-11-30T05:28:42.149Z,4.83
2022-11-30T05:29:42.108Z,4.89
2022-11-30T05:30:42.105Z,4.93
2022-11-30T05:31:42.136Z,4.86
2022-11-30T05:32:42.103Z,4.88
2022-11-30T05:33:42.089Z,4.86
2022-11-30T05:34:50.736Z,4.91
2022-11-30T05:35:43.050Z,4.91
2022-11-30T05:36:42.040Z,4.93
2022-11-30T05:37:42.030Z,4.89
2022-11-30T05:38:42.017Z,4.89
2022-11-30T05:39:42.013Z,4.94
2022-11-30T05:40:42.019Z,4.89
2022-11-30T05:41:41.991Z,4.86
2022-11-30T05:42:41.978Z,4.93
2022-11-30T05:43:41.963Z,4.86
2022-11-30T05:44:41.967Z,4.86
2022-11-30T05:45:41.955Z,4.86
2022-11-30T05:46:41.976Z,4.88
2022-11-30T05:47:41.928Z,4.83
2022-11-30T05:48:41.914Z,4.89
2022-11-30T05:49:41.929Z,4.88
2022-11-30T05:50:41.898Z,4.85
2022-11-30T05:51:41.883Z,4.93
2022-11-30T05:52:41.866Z,4.86
2022-11-30T05:53:41.853Z,4.86
2022-11-30T05:54:41.841Z,4.86
2022-11-30T05:55:41.858Z,4.89
2022-11-30T05:56:41.836Z,4.85
2022-11-30T05:57:41.819Z,4.91
2022-11-30T05:58:41.795Z,4.86
2022-11-30T05:59:41.806Z,4.89
2022-11-30T06:00:41.793Z,4.93
2022-11-30T06:01:41.896Z,4.91
2022-11-30T06:02:41.925Z,4.89
2022-11-30T06:03:41.778Z,4.93
2022-11-30T06:04:41.739Z,4.89
2022-11-30T06:05:41.750Z,4.82
2022-11-30T06:06:41.720Z,4.89
2022-11-30T06:07:41.760Z,4.89
2022-11-30T06:08:41.706Z,4.86
2022-11-30T06:09:41.699Z,4.85
2022-11-30T06:10:41.680Z,4.83
2022-11-30T06:11:41.675Z,4.83
2022-11-30T06:12:41.659Z,4.89
2022-11-30T06:13:41.657Z,4.88
2022-11-30T06:14:41.626Z,4.85
2022-11-30T06:15:41.635Z,4.88
2022-11-30T06:16:41.713Z,4.91
2022-11-30T06:17:41.594Z,4.86
2022-11-30T06:18:41.592Z,4.86
2022-11-30T06:19:41.595Z,4.85
2022-11-30T06:20:41.572Z,4.82
2022-11-30T06:21:41.595Z,4.86
2022-11-30T06:22:41.568Z,4.85
2022-11-30T06:23:41.536Z,4.86
2022-11-30T06:24:41.523Z,4.85
2022-11-30T06:25:41.509Z,4.79
2022-11-30T06:26:41.504Z,4.83
2022-11-30T06:27:41.500Z,4.83
2022-11-30T06:28:46.576Z,4.89
2022-11-30T06:29:42.468Z,4.82
2022-11-30T06:30:41.456Z,4.88
2022-11-30T06:31:41.502Z,4.86
2022-11-30T06:32:41.442Z,4.88
2022-11-30T06:33:41.436Z,4.85
2022-11-30T06:34:41.427Z,4.89
2022-11-30T06:35:41.416Z,4.88
2022-11-30T06:36:41.399Z,4.82
2022-11-30T06:37:41.401Z,4.85
2022-11-30T06:38:41.370Z,4.82
2022-11-30T06:40:05.474Z,4.89
2022-11-30T06:40:42.356Z,4.83
2022-11-30T06:41:41.340Z,4.86
2022-11-30T06:42:41.334Z,4.86
2022-11-30T06:43:41.314Z,4.83
2022-11-30T06:44:41.332Z,4.88
2022-11-30T06:45:41.370Z,4.82
2022-11-30T06:46:41.281Z,4.85
2022-11-30T06:47:41.277Z,4.78
2022-11-30T06:48:41.256Z,4.85
2022-11-30T06:49:41.261Z,4.82
2022-11-30T06:50:45.484Z,4.79
2022-11-30T06:51:42.230Z,4.82
2022-11-30T06:52:41.219Z,4.78
2022-11-30T06:53:41.230Z,4.78
2022-11-30T06:54:41.197Z,4.93
2022-11-30T06:55:41.202Z,4.91
2022-11-30T06:56:41.182Z,4.94
2022-11-30T06:57:41.164Z,4.86
2022-11-30T06:58:41.159Z,4.86
2022-11-30T06:59:41.159Z,4.86
2022-11-30T07:00:41.243Z,4.91
2022-11-30T07:01:41.121Z,4.85
2022-11-30T07:02:41.106Z,4.91
2022-11-30T07:03:41.209Z,4.85
2022-11-30T07:04:41.091Z,4.83
2022-11-30T07:05:41.096Z,4.85
2022-11-30T07:06:41.087Z,4.82
2022-11-30T07:07:41.169Z,4.83
2022-11-30T07:08:41.041Z,4.83
2022-11-30T07:09:41.061Z,4.82
2022-11-30T07:10:41.016Z,4.77
2022-11-30T07:11:41.020Z,4.83
2022-11-30T07:12:41.011Z,4.78
2022-11-30T07:13:41.000Z,4.86
2022-11-30T07:14:40.973Z,4.88
2022-11-30T07:15:40.969Z,4.83
2022-11-30T07:16:41.036Z,4.89
2022-11-30T07:17:40.975Z,4.94
2022-11-30T07:18:40.937Z,4.89
2022-11-30T07:19:40.947Z,4.89
2022-11-30T07:20:40.922Z,4.93
2022-11-30T07:21:40.900Z,4.86
2022-11-30T07:22:40.901Z,4.91
2022-11-30T07:23:40.900Z,4.86
2022-11-30T07:24:40.893Z,4.83
2022-11-30T07:25:40.884Z,4.88
2022-11-30T07:26:40.847Z,4.93
2022-11-30T07:27:40.837Z,4.85
2022-11-30T07:28:40.841Z,4.98
2022-11-30T07:29:40.827Z,4.97
2022-11-30T07:30:40.812Z,4.96
2022-11-30T07:31:40.864Z,4.96
2022-11-30T07:32:40.788Z,5.00
2022-11-30T07:33:40.811Z,4.98
2022-11-30T07:34:40.771Z,4.96
2022-11-30T07:35:40.755Z,4.88
2022-11-30T07:36:40.748Z,4.89
2022-11-30T07:37:40.733Z,4.98
2022-11-30T07:38:40.735Z,4.89
2022-11-30T07:39:40.729Z,4.88
2022-11-30T07:40:40.699Z,4.94
2022-11-30T07:41:40.708Z,4.89
2022-11-30T07:42:40.694Z,4.89
2022-11-30T07:43:40.683Z,4.94
2022-11-30T07:44:40.654Z,4.91
2022-11-30T07:45:40.719Z,4.91
2022-11-30T07:46:40.633Z,4.91
2022-11-30T07:47:40.620Z,4.89
2022-11-30T07:48:40.632Z,4.89
2022-11-30T07:49:40.611Z,4.93
2022-11-30T07:50:40.617Z,4.97
2022-11-30T07:51:40.584Z,4.88
2022-11-30T07:52:40.573Z,4.88
2022-11-30T07:53:40.561Z,4.91
2022-11-30T07:54:40.585Z,4.86
2022-11-30T07:55:40.545Z,4.91
2022-11-30T07:56:40.575Z,4.88
2022-11-30T07:57:40.558Z,4.88
2022-11-30T07:58:40.505Z,4.89
2022-11-30T07:59:40.502Z,4.96
2022-11-30T08:00:40.491Z,4.96
2022-11-30T08:01:40.698Z,4.94
2022-11-30T08:02:40.484Z,4.91
2022-11-30T08:03:40.465Z,4.93
2022-11-30T08:04:40.542Z,4.86
2022-11-30T08:05:40.429Z,4.96
2022-11-30T08:06:40.428Z,4.98
2022-11-30T08:07:40.469Z,4.93
2022-11-30T08:08:40.419Z,4.98
2022-11-30T08:09:40.394Z,4.94
2022-11-30T08:10:40.388Z,5.00
2022-11-30T08:11:40.397Z,4.96
2022-11-30T08:12:40.369Z,4.97
2022-11-30T08:13:40.384Z,4.98
2022-11-30T08:15:11.138Z,5.04
2022-11-30T08:15:41.326Z,4.98
2022-11-30T08:16:40.355Z,5.00
2022-11-30T08:17:40.301Z,4.98
2022-11-30T08:18:40.295Z,5.01
2022-11-30T08:19:40.314Z,5.09
2022-11-30T08:20:41.670Z,5.03
2022-11-30T08:21:40.257Z,4.94
2022-11-30T08:22:40.250Z,5.04
2022-11-30T08:23:40.361Z,5.06
2022-11-30T08:24:40.231Z,5.04
2022-11-30T08:25:40.244Z,5.11
2022-11-30T08:26:40.229Z,5.07
2022-11-30T08:27:40.196Z,5.04
2022-11-30T08:28:40.206Z,5.12
2022-11-30T08:29:40.196Z,5.09
2022-11-30T08:30:40.259Z,5.15
2022-11-30T08:31:40.160Z,5.09
2022-11-30T08:32:40.141Z,5.01
2022-11-30T08:33:40.155Z,5.06
2022-11-30T08:34:40.118Z,5.11
2022-11-30T08:35:40.112Z,5.18
2022-11-30T08:36:40.115Z,5.14
2022-11-30T08:37:40.134Z,5.11
2022-11-30T08:38:40.083Z,5.07
2022-11-30T08:39:40.092Z,5.09
2022-11-30T08:40:40.065Z,5.15
2022-11-30T08:41:40.067Z,5.09
2022-11-30T08:42:40.042Z,5.07
2022-11-30T08:43:40.053Z,5.12
2022-11-30T08:44:40.041Z,5.21
2022-11-30T08:45:40.036Z,5.16
2022-11-30T08:46:51.527Z,5.19
2022-11-30T08:47:41.004Z,5.18
2022-11-30T08:48:40.183Z,5.18
2022-11-30T08:49:39.976Z,5.18
2022-11-30T08:50:39.991Z,5.11
2022-11-30T08:52:14.685Z,5.14
2022-11-30T08:52:40.934Z,5.14
2022-11-30T08:53:39.972Z,5.12
2022-11-30T08:54:39.940Z,5.14
2022-11-30T08:55:39.903Z,5.14
2022-11-30T08:56:39.896Z,5.14
2022-11-30T08:57:39.891Z,5.14
2022-11-30T08:58:39.924Z,5.12
2022-11-30T08:59:39.873Z,5.14
2022-11-30T09:00:39.847Z,5.27
2022-11-30T09:01:39.872Z,5.19
2022-11-30T09:02:39.917Z,5.29
2022-11-30T09:03:39.835Z,5.27
2022-11-30T09:04:39.810Z,5.32
2022-11-30T09:05:39.851Z,5.27
2022-11-30T09:06:39.807Z,5.27
2022-11-30T09:07:39.852Z,5.36
2022-11-30T09:08:41.229Z,5.41
2022-11-30T09:09:39.763Z,5.48
2022-11-30T09:10:39.762Z,5.40
2022-11-30T09:11:39.732Z,5.43
2022-11-30T09:12:39.724Z,5.47
2022-11-30T09:13:39.732Z,5.48
2022-11-30T09:14:39.706Z,5.51
2022-11-30T09:15:39.786Z,5.52
2022-11-30T09:16:39.696Z,5.57
2022-11-30T09:17:39.690Z,5.58
2022-11-30T09:18:39.748Z,5.51
2022-11-30T09:19:39.666Z,5.55
2022-11-30T09:20:39.650Z,5.50
2022-11-30T09:21:39.639Z,5.69
2022-11-30T09:22:39.625Z,5.62
2022-11-30T09:23:39.691Z,5.57
2022-11-30T09:24:39.613Z,5.58
2022-11-30T09:25:39.593Z,5.62
2022-11-30T09:26:39.580Z,5.65
2022-11-30T09:27:39.566Z,5.76
2022-11-30T09:28:39.635Z,5.69
2022-11-30T09:29:39.572Z,5.70
2022-11-30T09:30:39.558Z,5.69
2022-11-30T09:31:39.527Z,5.76
2022-11-30T09:32:39.522Z,5.77
2022-11-30T09:33:39.542Z,5.75
2022-11-30T09:34:39.503Z,5.75
2022-11-30T09:35:39.507Z,5.67
2022-11-30T09:36:39.486Z,5.79
2022-11-30T09:37:39.465Z,5.72
2022-11-30T09:38:39.494Z,5.69
2022-11-30T09:39:39.441Z,5.70
2022-11-30T09:40:39.449Z,5.79
2022-11-30T09:41:39.449Z,5.84
2022-11-30T09:42:39.441Z,5.90
2022-11-30T09:43:39.398Z,5.90
2022-11-30T09:44:39.384Z,5.79
2022-11-30T09:45:39.381Z,5.91
2022-11-30T09:46:39.364Z,5.95
2022-11-30T09:47:39.363Z,5.97
2022-11-30T09:48:39.347Z,6.03
2022-11-30T09:49:39.381Z,5.98
2022-11-30T09:50:39.324Z,5.95
2022-11-30T09:51:39.308Z,6.03
2022-11-30T09:52:39.337Z,6.15
2022-11-30T09:53:39.313Z,6.12
2022-11-30T09:54:39.293Z,6.09
2022-11-30T09:55:39.311Z,6.19
2022-11-30T09:56:39.270Z,6.11
2022-11-30T09:57:39.272Z,6.24
2022-11-30T09:58:39.243Z,6.21
2022-11-30T09:59:39.236Z,6.27
2022-11-30T10:00:39.231Z,6.35
2022-11-30T10:01:42.322Z,6.35
2022-11-30T10:02:40.366Z,6.46
2022-11-30T10:03:39.251Z,6.38
2022-11-30T10:04:39.172Z,6.35
2022-11-30T10:05:39.235Z,6.25
2022-11-30T10:06:39.164Z,6.16
2022-11-30T10:07:39.238Z,6.19
2022-11-30T10:08:39.157Z,6.27
2022-11-30T10:09:39.134Z,6.28
2022-11-30T10:10:39.107Z,6.21
2022-11-30T10:11:39.100Z,6.34
2022-11-30T10:12:39.096Z,6.32
2022-11-30T10:13:39.103Z,6.32
2022-11-30T10:14:39.063Z,6.31
2022-11-30T10:15:39.129Z,6.32
2022-11-30T10:16:39.080Z,6.32
2022-11-30T10:17:39.032Z,6.38
2022-11-30T10:18:39.047Z,6.34
2022-11-30T10:19:39.017Z,6.35
2022-11-30T10:20:38.999Z,6.35
2022-11-30T10:21:39.019Z,6.32
2022-11-30T10:22:38.982Z,6.25
2022-11-30T10:23:38.972Z,6.28
2022-11-30T10:24:39.023Z,6.35
2022-11-30T10:25:38.948Z,6.35
2022-11-30T10:26:38.952Z,6.46
2022-11-30T10:27:38.933Z,6.45
2022-11-30T10:28:46.985Z,6.57
2022-11-30T10:29:39.907Z,6.49
2022-11-30T10:30:38.964Z,6.52
2022-11-30T10:31:38.929Z,6.53
2022-11-30T10:32:38.877Z,6.60
2022-11-30T10:33:38.891Z,6.61
2022-11-30T10:34:38.867Z,6.70
2022-11-30T10:35:38.836Z,6.60
2022-11-30T10:36:38.840Z,6.67
2022-11-30T10:37:38.836Z,6.60
2022-11-30T10:38:38.810Z,6.60
2022-11-30T10:39:38.820Z,6.56
2022-11-30T10:40:38.787Z,6.64
2022-11-30T10:41:38.772Z,6.70
2022-11-30T10:42:38.762Z,6.67
2022-11-30T10:43:38.768Z,6.70
2022-11-30T10:44:38.745Z,6.74
2022-11-30T10:45:38.766Z,6.75
2022-11-30T10:46:38.831Z,6.86
2022-11-30T10:47:38.710Z,6.91
2022-11-30T10:48:38.722Z,6.97
2022-11-30T10:49:38.692Z,6.93
2022-11-30T10:50:38.678Z,6.86
2022-11-30T10:51:38.696Z,6.85
2022-11-30T10:52:38.686Z,6.96
2022-11-30T10:53:38.676Z,6.88
2022-11-30T10:54:38.649Z,6.89
2022-11-30T10:55:38.629Z,6.99
2022-11-30T10:56:38.623Z,7.11
2022-11-30T10:57:38.614Z,7.13
2022-11-30T10:58:38.625Z,7.00
2022-11-30T10:59:38.581Z,7.03
2022-11-30T11:00:38.582Z,7.11
2022-11-30T11:01:38.617Z,7.11
2022-11-30T11:02:38.614Z,7.04
2022-11-30T11:03:38.622Z,7.18
2022-11-30T11:04:38.524Z,7.28
2022-11-30T11:05:38.523Z,7.34
2022-11-30T11:06:38.572Z,7.42
2022-11-30T11:07:38.527Z,7.31
2022-11-30T11:08:38.495Z,7.18
2022-11-30T11:09:38.526Z,7.08
2022-11-30T11:10:38.475Z,7.18
2022-11-30T11:11:38.451Z,7.21
2022-11-30T11:12:38.451Z,7.22
2022-11-30T11:13:38.439Z,7.21
2022-11-30T11:14:38.452Z,7.26
2022-11-30T11:15:38.463Z,7.16
2022-11-30T11:16:38.397Z,7.29
2022-11-30T11:17:38.408Z,7.22
2022-11-30T11:18:38.381Z,7.21
2022-11-30T11:19:38.379Z,7.22
2022-11-30T11:20:38.367Z,7.34
2022-11-30T11:21:38.345Z,7.37
2022-11-30T11:22:38.358Z,7.29
2022-11-30T11:23:38.333Z,7.15
2022-11-30T11:24:38.323Z,7.11
2022-11-30T11:25:38.340Z,7.16
2022-11-30T11:26:38.418Z,7.22
2022-11-30T11:27:44.226Z,7.18
2022-11-30T11:28:39.291Z,7.18
2022-11-30T11:29:38.263Z,7.18
2022-11-30T11:30:38.253Z,7.18
2022-11-30T11:31:38.333Z,7.24
2022-11-30T11:32:38.229Z,7.15
2022-11-30T11:33:38.226Z,7.18
2022-11-30T11:34:38.221Z,7.31
2022-11-30T11:35:38.207Z,7.26
2022-11-30T11:36:38.210Z,7.33
2022-11-30T11:37:38.185Z,7.29
2022-11-30T11:38:38.173Z,7.28
2022-11-30T11:39:38.155Z,7.31
2022-11-30T11:40:38.149Z,7.43
2022-11-30T11:41:38.174Z,7.40
2022-11-30T11:42:38.123Z,7.46
2022-11-30T11:43:38.116Z,7.42
2022-11-30T11:44:38.093Z,7.52
2022-11-30T11:45:38.094Z,7.47
2022-11-30T11:46:38.198Z,7.43
2022-11-30T11:47:38.085Z,7.44
2022-11-30T11:48:38.061Z,7.31
2022-11-30T11:49:38.047Z,7.29
2022-11-30T11:51:39.043Z,7.31
2022-11-30T11:52:38.025Z,7.28
2022-11-30T11:53:43.881Z,7.06
2022-11-30T11:54:39.020Z,7.16
2022-11-30T11:55:37.978Z,7.13
2022-11-30T11:56:38.004Z,7.06
2022-11-30T11:57:37.994Z,7.06
2022-11-30T11:58:37.959Z,7.08
2022-11-30T11:59:37.960Z,7.08
2022-11-30T12:00:38.147Z,7.15
2022-11-30T12:01:40.375Z,7.08
2022-11-30T12:02:38.065Z,7.10
2022-11-30T12:03:37.916Z,7.03
2022-11-30T12:04:37.967Z,7.15
2022-11-30T12:05:37.886Z,7.11
2022-11-30T12:06:37.872Z,7.03
2022-11-30T12:07:37.913Z,7.08
2022-11-30T12:08:37.857Z,7.07
2022-11-30T12:09:37.850Z,7.04
2022-11-30T12:10:53.684Z,7.04
2022-11-30T12:11:38.828Z,7.11
2022-11-30T12:12:44.415Z,7.24
2022-11-30T12:13:38.837Z,7.11
2022-11-30T12:14:37.812Z,7.08
2022-11-30T12:15:37.773Z,7.07
2022-11-30T12:16:37.768Z,7.01
2022-11-30T12:17:37.750Z,7.08
2022-11-30T12:18:37.777Z,6.96
2022-11-30T12:19:37.729Z,7.07
2022-11-30T12:20:37.729Z,7.04
2022-11-30T12:21:37.721Z,7.00
2022-11-30T12:22:37.712Z,7.01
2022-11-30T12:23:37.690Z,6.99
2022-11-30T12:24:37.690Z,7.00
2022-11-30T12:25:37.661Z,7.01
2022-11-30T12:26:37.668Z,7.00
2022-11-30T12:27:37.664Z,7.07
2022-11-30T12:28:37.627Z,7.18
2022-11-30T12:29:45.733Z,7.04
2022-11-30T12:30:37.614Z,7.11
2022-11-30T12:31:37.680Z,7.00
2022-11-30T12:32:37.603Z,7.03
2022-11-30T12:33:37.585Z,7.01
2022-11-30T12:34:37.644Z,7.01
2022-11-30T12:35:37.579Z,7.01
2022-11-30T12:36:37.549Z,7.11
2022-11-30T12:37:38.488Z,7.07
2022-11-30T12:38:37.525Z,7.01
2022-11-30T12:39:37.571Z,7.08
2022-11-30T12:40:37.555Z,7.07
2022-11-30T12:41:37.511Z,7.01
2022-11-30T12:42:37.500Z,6.86
2022-11-30T12:43:37.487Z,6.99
2022-11-30T12:44:42.117Z,6.99
2022-11-30T12:45:38.479Z,7.01
2022-11-30T12:46:37.507Z,7.03
2022-11-30T12:47:37.448Z,7.03
2022-11-30T12:48:37.481Z,7.10
2022-11-30T12:49:37.433Z,7.10
2022-11-30T12:50:37.394Z,7.16
2022-11-30T12:51:37.396Z,7.15
2022-11-30T12:52:37.416Z,7.15
2022-11-30T12:53:37.360Z,7.06
2022-11-30T12:54:37.378Z,7.21
2022-11-30T12:55:37.649Z,7.15
2022-11-30T12:56:40.249Z,7.07
2022-11-30T12:57:38.348Z,7.13
2022-11-30T12:58:37.318Z,7.11
2022-11-30T12:59:37.320Z,7.06
2022-11-30T13:00:37.354Z,7.07
2022-11-30T13:01:37.401Z,7.13
2022-11-30T13:02:37.269Z,7.03
2022-11-30T13:03:37.264Z,7.04
2022-11-30T13:04:37.278Z,7.01
2022-11-30T13:05:37.244Z,7.00
2022-11-30T13:06:37.234Z,7.00
2022-11-30T13:07:37.247Z,6.99
2022-11-30T13:08:37.199Z,7.10
2022-11-30T13:09:37.293Z,6.97
2022-11-30T13:10:37.195Z,7.00
2022-11-30T13:11:37.170Z,7.00
2022-11-30T13:12:37.183Z,7.01
2022-11-30T13:13:37.151Z,7.08
2022-11-30T13:14:37.237Z,7.04
2022-11-30T13:15:37.155Z,7.08
2022-11-30T13:16:37.279Z,7.11
2022-11-30T13:17:37.178Z,7.08
2022-11-30T13:18:38.675Z,7.00
2022-11-30T13:19:37.091Z,7.08